Beaver Dam, WI

3:58 AM CDT on September 17, 2014 (GMT -0500)
2 miles North of | Change Station
CLOSE
Current Station
Personal Weather Station
Location: Beaver Dam, WI
Elevation: 889 ft
Nearby Weather Stations

Elev 889 ft 43.50 °N, 88.86 °W | Updated 12 seconds ago

Clear
Clear
40.9 °F
Feels Like 41 °F
N
0.0
Wind Variable Wind from WSW
Gusts 0.0 mph

Today
High -- | Low -- °F
--% Chance of Precip.
Yesterday
High -- | Low -- °F
Precip. -- in
6:37 AM 7:01 PM
Last Quarter, 38% visible
Pressure 30.05 in
Visibility 10.0 miles
Clouds Clear
Windchill 41 °F
Dew Point 41 °F
Humidity 99%
Rainfall 0.00 in
Snow Depth Not available.
UV 0 out of 12
Pollen 4.70 out of 12
Air Quality Not available.
Flu Activity Not available.
METAR KUNU 170835Z AUTO 00000KT 10SM CLR 06/05 A3005 RMK AO2 T00560050

More Conditions Fewer Conditions

Pressure 30.05 in
Visibility 10.0 miles
Clouds Clear
Windchill 41 °F
Dew Point 41 °F
Humidity 99%
Rainfall 0.00 in
Snow Depth Not available.
UV 0 out of 12
Pollen 4.70 out of 12
Air Quality Not available.
Flu Activity Not available.
METAR KUNU 170835Z AUTO 00000KT 10SM CLR 06/05 A3005 RMK AO2 T00560050

More Conditions Fewer Conditions

10-Day Weather Forecast

Almanac

Astronomy

Sep. 17, 2014 Rise Set
Actual Time 6:37 AM CDT 7:01 PM CDT
Civil Twilight 6:08 AM CDT 7:30 PM CDT
Nautical Twilight 5:34 AM CDT 8:04 PM CDT
Astronomical Twilight 4:59 AM CDT 8:38 PM CDT
Moon 12:29 AM CDT 3:18 PM CDT
Length of Visible Light 13h 22m
Length of Day
12h 24m
Tomorrow will be 2m 57s shorter.
Last Quarter, 38% of the Moon is Illuminated
Today
Last Quarter
Sep 24
New
Oct 1
First Quarter
Oct 8
Full
Oct 15
Last Quarter

Today's Extremes

State Highs State Lows

Community

WunderPhotos

Upload Photos

1,753,990 photos uploaded!

Nearby

Snow Depth

Station Depth Elevation
No new snow has been reported.

Earthquake Activity

City Distance Mag. Time & Date
No recent earthquake activity has been reported nearby.
Minimum magnitude displayed is 2.5.

Coastal Water Temperatures

Place Temperature
No Stations Reporting

Nearby Weather Stations